메인 페이지
METAR-TAF:

METAR-TAF

공항 :

누악쇼트, 모리타니

위도: 18-18-36N, 경도: 015-58-11W, 고도: 3m

현재 날씨관측

예보는 27분 전, 05:30시(UTC)에 발표되었습니다.
7kt
온도 21°C
습도 49%
기압 1010 hPa
시정: 8000m

METAR: GQNO 200530Z 36007KT 8000 NSC 21/10 Q1010 NOSIG

시각: 05:57 (05:57 UTC)

예보

예보는 57분 전, 05:00시(UTC)에 발표되었습니다.
예보 대상 시간: 20일 06시부터 21일 12시까지 (UTC)
북동12kt
시정: 7000m
확률 30% :
일시적
20일 12시부터 20일 16시까지 (UTC)
시정: 2500m
날린먼지
전환 중
20일 16시부터 20일 20시까지 (UTC)
14kt

TAF: GQNO 200500Z 2006/2112 05012KT 7000 NSC PROB30 TEMPO 2012/2016 2500 BLDU BECMG 2016/2020 35014KT

4,000개 이상의 공항 관측 자료 및 예보 (METAR 및 TAF 보고).

지도상에서 검색 가능한 기상관측소가 노란 점과 빨간 점으로 표시되어 있습니다.

기상관측소 명을 보려면 표시 위로 마우스를 이동하세요.

날씨 관측과 예보를 보려면 클릭하세요.

지도 변경 : 확대하려면 엑스 표시가 있는 녹색 버튼, 축소하려면 빼기 표시가 있는 녹색 버튼, 다음 페이지의 지도를 보려면 녹색 화살표를 클릭하세요.


METAR-TAF: